Aniwa, Wisconsin
Current Conditions -  °F | °C
As of 10:15 AM on Wednesday 22 Oct 2014 (Local Time) from KAIG Reporting Station
Scattered Clouds Scattered Clouds  
Wind Chill: 31°   Ceiling: Unl
Heat Index: 37°   Visibility: 10mi
Dew Point: 37°   Wind: 8mph
Humidity: 100%   Direction: 150°SSE
Pressure: 30.35"   Gusts: NA
Location:  45.01°N, 89.21°W
Report Text: KAIG 221515Z AUTO 15007KT 10SM SCT002 03/03 A3035 RMK AO2 T00290029
Loading
Personal Weather Stations






























Interactive Weather Map
Tropical Storm Tracking
New forecast layout! Learn more

10-Day Weather Forecast

Advertisements
Track Severe Weather on mobile